Dexter, OR (97431)

9:37 PM PDT on August 20, 2014 (GMT -0700)
Lost Creek | Change Station
CLOSE
Current Station
Personal Weather Station
Location: Dexter, OR
Elevation: 700 ft
Nearby Weather Stations

Elev 700 ft 43.92 °N, 122.82 °W | Updated 1 minute ago

Clear
Clear
61.2 °F
Feels Like 61.2 °F
N
1.0
Wind Variable Wind from South
Gusts 1.0 mph

Today
High -- | Low -- °F
--% Chance of Precip.
Yesterday
High -- | Low -- °F
Precip. -- in
6:21 AM 8:07 PM
Waning Crescent, 17% visible
Pressure 29.97 in
Visibility 10.0 miles
Clouds Clear
Dew Point 52 °F
Humidity 72%
Rainfall 0.02 in
Snow Depth Not available.
UV 1.0 out of 12
Pollen 3.20 out of 12
Ozone Good
PM2.5 Good
Flu Activity Not available.
METAR KEUG 210354Z 30005KT 10SM CLR 19/11 A2997 RMK AO2 SLP148 T01890106

More Conditions Fewer Conditions

Pressure 29.97 in
Visibility 10.0 miles
Clouds Clear
Dew Point 52 °F
Humidity 72%
Rainfall 0.02 in
Snow Depth Not available.
UV 1.0 out of 12
Pollen 3.20 out of 12
Ozone Good
PM2.5 Good
Flu Activity Not available.
METAR KEUG 210354Z 30005KT 10SM CLR 19/11 A2997 RMK AO2 SLP148 T01890106

More Conditions Fewer Conditions

10-Day Weather Forecast

Almanac

Astronomy

Aug. 20, 2014 Rise Set
Actual Time 6:21 AM PDT 8:07 PM PDT
Civil Twilight 5:50 AM PDT 8:37 PM PDT
Nautical Twilight 5:12 AM PDT 9:15 PM PDT
Astronomical Twilight 4:32 AM PDT 9:55 PM PDT
Moon 2:01 AM PDT (8/20) 4:59 PM PDT (8/20)
Length of Visible Light 14h 47m
Length of Day
13h 46m
Tomorrow will be 2m 47s shorter.
Waning Crescent, 17% of the Moon is Illuminated
Aug 21
Waning Crescent
Aug 25
New
Sep 2
First Quarter
Sep 8
Full
Sep 15
Last Quarter

Today's Extremes

State Highs State Lows

Community

WunderPhotos

Upload Photos

1,745,854 photos uploaded!

Nearby

Air Quality

  Air Quality AQ Index Pollutant
Yesterday Good
OZONE
Yesterday Good
PM2.5
Current Good
OZONE
Current Good
PM2.5
Wednesday Good
OZONE
Thursday Good
OZONE

Snow Depth

Station Depth Elevation
Roaring River 0 in 4900 ft
Salt Creek Falls 0 in 4000 ft
Mckenzie 0 in 4800 ft
Santiam Junction 0 in 3750 ft
Hogg Pass 0 in 4760 ft

Earthquake Activity

City Distance Mag. Time & Date
No recent earthquake activity has been reported nearby.
Minimum magnitude displayed is 2.5.

Coastal Water Temperatures

Place Temperature
No Stations Reporting

Nearby Weather Stations